This is the latest recevied weather packets stored in our database for station/object N9PBY-2. If no packets are shown the sender has not sent any weather packets the latest 10 day(s).
| Time | Temp. | Humidity | Pressure | Rain* | Wind** | Luminosity | Snow |
|---|---|---|---|---|---|---|---|
| 1778199007 | 6.67° C | 45% | 1010.4 hPa | 0 mm | - | - | - |
| 1778198406 | 6.67° C | 45% | 1010.3 hPa | 0 mm | - | - | - |
| 1778197807 | 6.67° C | 44% | 1010.2 hPa | 0 mm | - | - | - |
| 1778197206 | 7.22° C | 44% | 1010 hPa | 0 mm | - | - | - |
| 1778196606 | 7.22° C | 44% | 1009.9 hPa | 0 mm | - | - | - |
| 1778196006 | 7.22° C | 45% | 1010 hPa | 0 mm | - | - | - |
| 1778195406 | 7.78° C | 45% | 1009.9 hPa | 0 mm | - | - | - |
| 1778194807 | 7.78° C | 45% | 1010.1 hPa | 0 mm | - | - | - |
| 1778194207 | 7.78° C | 43% | 1010.3 hPa | 0 mm | - | - | - |
| 1778193606 | 8.33° C | 44% | 1010.3 hPa | 0 mm | - | - | - |
| 1778193007 | 8.89° C | 45% | 1010.4 hPa | 0 mm | - | - | - |
| 1778192406 | 8.89° C | 47% | 1010.3 hPa | 0 mm | - | - | - |
| 1778191806 | 8.89° C | 44% | 1010.5 hPa | 0 mm | - | - | - |
| 1778191207 | 8.89° C | 43% | 1010.5 hPa | 0 mm | - | - | - |
| 1778190606 | 8.89° C | 42% | 1010.4 hPa | 0 mm | - | - | - |
| 1778190007 | 8.89° C | 39% | 1010.5 hPa | 0 mm | - | - | - |
| 1778189407 | 9.44° C | 39% | 1010.4 hPa | 0 mm | - | - | - |
| 1778188807 | 9.44° C | 40% | 1010.5 hPa | 0 mm | - | - | - |
| 1778188206 | 9.44° C | 39% | 1010.6 hPa | 0 mm | - | - | - |
| 1778187606 | 8.89° C | 40% | 1010.7 hPa | 0 mm | - | - | - |
| 1778187007 | 8.89° C | 42% | 1010.8 hPa | 0 mm | - | - | - |
| 1778186407 | 8.89° C | 44% | 1010.8 hPa | 0 mm | - | - | - |
| 1778185806 | 8.33° C | 43% | 1010.9 hPa | 0 mm | - | - | - |
| 1778185206 | 7.78° C | 43% | 1011.3 hPa | 0 mm | - | - | - |
| 1778184606 | 8.33° C | 43% | 1011.2 hPa | 0 mm | - | - | - |
* Rain latest hour (hover to see other rain measurements)
** Current wind speed in m/s (hover to see current wind gust speed)